Ault, Colorado
Current Conditions -  °F | °C
As of 4:35 PM on Saturday 22 Nov 2014 (Local Time) from KGXY Reporting Station
Clear Clear  
Wind Chill: 36°   Ceiling: Unl
Heat Index: 39°   Visibility: 10mi
Dew Point: 25°   Wind: 5mph
Humidity: 56%   Direction: 330°NNW
Pressure: 29.58"   Gusts: NA
Location:  40.58°N, 104.73°W
Report Text: KGXY 222335Z AUTO 33004KT 10SM CLR 04/M04 A2958 RMK AO1
Loading
Personal Weather Stations






























Interactive Weather Map New forecast layout! Learn more

10-Day Weather Forecast

Advertisements
Track Severe Weather on mobile